Flight Track Log - Related Links

Times and Time Zones

All times are in EDT time to prevent confusion due to time zone crossing. See the N8044U flight status page for this flight to view local times or setup timezone preferences in your user account.


Time Position Orientation Groundspeed Altitude Reporting Facility
EDT Latitude Longitude Course Direction KTS MPH feet Rate Location/Type
Fri 08:02:47 AM 41.6861 -76.3483 324° Northwest 155 178 8,500  Level New York Center
Fri 08:03:47 AM 41.7306 -76.3797 332° Northwest 155 178 8,400 -50 Descending New York Center
Fri 08:04:47 AM 41.7706 -76.4111 330° Northwest 160 184 8,400 -150 Level New York Center
Fri 08:05:47 AM 41.8131 -76.4397 333° Northwest 160 184 8,100 -350 Descending New York Center
Fri 08:06:47 AM 41.8553 -76.4711 331° Northwest 165 190 7,700 -350 Descending New York Center
Fri 08:07:47 AM 41.8975 -76.5025 331° Northwest 165 190 7,400 -350 Descending New York Center
Fri 08:08:00 AM 41.8586 -76.4063 324° Northwest  Level Estimated
Fri 08:08:47 AM 41.9397 -76.5342 331° Northwest 170 196 7,000  Level New York Center
Fri 08:09:47 AM 41.9819 -76.5631 333° Northwest 170 196 6,600 -400 Descending New York Center
Fri 08:10:47 AM 42.0264 -76.5947 332° Northwest 175 201 6,200 -400 Descending New York Center
Fri 08:11:47 AM 42.0683 -76.6264 331° Northwest 175 201 5,800 -300 Descending New York Center
Fri 08:12:47 AM 42.1086 -76.6578 330° Northwest 175 201 5,600 -250 Descending New York Center
Fri 08:13:47 AM 42.1528 -76.6897 332° Northwest 175 201 5,300 -300 Descending New York Center
Fri 08:14:47 AM 42.1950 -76.7217 331° Northwest 175 201 5,000 -300 Descending New York Center
Fri 08:15:47 AM 42.2369 -76.7533 331° Northwest 180 207 4,700 -250 Descending New York Center
Fri 08:16:47 AM 42.2792 -76.7853 331° Northwest 180 207 4,500 -250 Descending New York Center
Fri 08:17:47 AM 42.3214 -76.8144 333° Northwest 180 207 4,200 -300 Descending New York Center
Fri 08:19:00 AM 42.3694 -76.8296 334° Northwest  Level FlightAware Approximate
Fri 08:26:00 AM 42.6058 -77.0235 326° Northwest  Level FlightAware Approximate
Fri 08:27:00 AM 42.6333 -77.0500 324° Northwest  Level FlightAware Approximate

Login

Don't have an account? Register now (free) for customized features, flight alerts, and more!